Time;durP1;ratioP1;P1;durP2;ratioP2;P2;SDS_P1;SDS_P2;PMS_P1;PMS_P2;Temp;Humidity;BMP_temperature;BMP_pressure;BME280_temperature;BME280_humidity;BME280_pressure;Samples;Min_cycle;Max_cycle;Signal;HPM_P1;HPM_P2
2023/03/25 00:00:58;;;;;;;17.10;2.55;;;9.80;99.90;;;;;;4915521;29;20059;-82
2023/03/25 00:03:32;;;;;;;20.45;3.13;;;9.80;99.90;;;;;;4930954;29;20055;-82
2023/03/25 00:05:59;;;;;;;17.38;3.15;;;7.60;99.90;;;;;;4930185;29;20090;-81
2023/03/25 00:08:25;;;;;;;15.50;3.60;;;11.90;99.90;;;;;;4914686;29;20704;-81
2023/03/25 00:10:57;;;;;;;19.65;3.42;;;9.80;99.90;;;;;;4915155;29;20090;-81
2023/03/25 00:13:22;;;;;;;23.05;3.63;;;9.80;99.90;;;;;;4912390;29;20063;-82
2023/03/25 00:15:52;;;;;;;13.88;2.22;;;9.80;99.90;;;;;;4915375;29;20046;-82
2023/03/25 00:18:19;;;;;;;13.27;2.42;;;9.80;99.90;;;;;;4913667;29;20051;-81
2023/03/25 00:20:49;;;;;;;15.13;2.40;;;9.70;99.90;;;;;;4915647;29;20150;-82
2023/03/25 00:23:16;;;;;;;18.33;2.30;;;9.70;99.90;;;;;;4909802;29;20099;-81
2023/03/25 00:25:44;;;;;;;12.57;2.22;;;9.60;99.90;;;;;;4914961;29;20047;-81
2023/03/25 00:28:15;;;;;;;20.58;3.40;;;9.60;99.90;;;;;;4894265;29;20051;-81
2023/03/25 00:30:42;;;;;;;18.02;2.83;;;11.30;99.90;;;;;;4915173;29;20106;-81
2023/03/25 00:33:12;;;;;;;14.80;2.00;;;9.50;99.90;;;;;;4913298;29;20055;-81
2023/03/25 00:35:47;;;;;;;19.58;3.10;;;9.90;99.90;;;;;;4930661;29;20818;-81
2023/03/25 00:38:13;;;;;;;16.77;3.28;;;12.40;99.90;;;;;;4923608;29;20074;-82
2023/03/25 00:40:40;;;;;;;18.10;3.10;;;10.80;99.90;;;;;;4948780;29;20114;-81
2023/03/25 00:43:06;;;;;;;13.05;2.78;;;9.30;99.90;;;;;;4912956;29;20059;-81
2023/03/25 00:45:33;;;;;;;17.30;2.63;;;10.00;99.90;;;;;;4929527;29;20487;-81
2023/03/25 00:47:59;;;;;;;19.25;2.95;;;11.10;99.90;;;;;;4899400;29;20051;-81
2023/03/25 00:50:25;;;;;;;17.83;2.03;;;9.70;99.90;;;;;;4914426;29;20054;-81
2023/03/25 00:52:52;;;;;;;23.52;3.35;;;9.40;99.90;;;;;;4931097;29;20051;-81
2023/03/25 00:55:40;;;;;;;15.60;2.25;;;12.00;99.90;;;;;;4929851;29;20134;-81
2023/03/25 00:58:06;;;;;;;18.58;3.00;;;11.40;99.90;;;;;;4929527;29;20056;-82
2023/03/25 01:00:32;;;;;;;19.48;3.60;;;12.30;99.90;;;;;;4913325;29;20058;-83
2023/03/25 01:03:00;;;;;;;23.52;4.30;;;9.10;99.90;;;;;;4914697;29;20059;-82
2023/03/25 01:05:26;;;;;;;21.20;3.45;;;9.30;99.90;;;;;;4930121;29;20407;-82
2023/03/25 01:07:55;;;;;;;15.95;3.42;;;10.90;99.90;;;;;;4931881;29;20090;-82
2023/03/25 01:10:22;;;;;;;24.00;4.25;;;9.00;99.90;;;;;;4929059;29;20089;-82
2023/03/25 01:12:48;;;;;;;25.08;3.05;;;9.70;99.90;;;;;;4915332;29;20113;-84
2023/03/25 01:15:14;;;;;;;27.35;5.03;;;8.90;99.90;;;;;;4929560;29;20059;-82
2023/03/25 01:17:40;;;;;;;16.77;3.25;;;11.80;99.90;;;;;;4927828;29;20118;-82
2023/03/25 01:20:08;;;;;;;27.67;4.03;;;11.90;99.90;;;;;;4929357;29;20479;-82
2023/03/25 01:22:37;;;;;;;22.80;2.92;;;8.90;99.90;;;;;;4931442;29;20082;-82
2023/03/25 01:25:03;;;;;;;21.67;3.60;;;10.70;99.90;;;;;;4897798;29;20484;-82
2023/03/25 01:27:29;;;;;;;21.40;3.45;;;8.80;99.90;;;;;;4914200;29;20058;-82
2023/03/25 01:29:55;;;;;;;20.55;3.88;;;11.60;99.90;;;;;;4930675;29;20643;-82
2023/03/25 01:32:21;;;;;;;26.45;3.85;;;;;;;;;;4896732;29;20486;-82
2023/03/25 01:34:47;;;;;;;21.55;3.75;;;8.90;99.90;;;;;;4906104;29;20568;-82
2023/03/25 01:37:12;;;;;;;30.83;3.67;;;8.80;99.90;;;;;;4912663;29;20146;-82
2023/03/25 01:39:38;;;;;;;20.35;4.05;;;8.70;99.90;;;;;;4929299;29;20051;-82
2023/03/25 01:42:04;;;;;;;27.83;3.70;;;8.80;99.90;;;;;;4912535;29;20047;-82
2023/03/25 01:44:30;;;;;;;25.33;3.78;;;8.80;99.90;;;;;;4929308;29;20452;-83
2023/03/25 01:47:00;;;;;;;19.80;3.28;;;11.80;99.90;;;;;;4913742;29;20055;-83
2023/03/25 01:49:43;;;;;;;25.40;4.18;;;11.80;99.90;;;;;;4913904;29;20054;-82
2023/03/25 01:52:21;;;;;;;26.60;4.22;;;8.80;99.90;;;;;;4929065;29;20091;-82
2023/03/25 01:54:51;;;;;;;28.50;3.35;;;8.80;99.90;;;;;;4915139;29;20094;-83
2023/03/25 01:57:19;;;;;;;31.92;3.63;;;8.90;99.90;;;;;;4929137;29;20548;-83
2023/03/25 01:59:46;;;;;;;25.25;4.97;;;11.70;99.90;;;;;;4914583;29;20059;-82
2023/03/25 02:02:18;;;;;;;29.00;4.28;;;10.30;99.90;;;;;;4929142;29;20161;-82
2023/03/25 02:04:57;;;;;;;26.27;4.20;;;10.70;99.90;;;;;;4947912;29;20677;-82
2023/03/25 02:07:29;;;;;;;23.42;4.15;;;8.90;99.90;;;;;;4924121;29;20550;-82
2023/03/25 02:09:58;;;;;;;29.55;4.05;;;11.10;99.90;;;;;;4897358;29;20138;-82
2023/03/25 02:12:24;;;;;;;26.92;4.22;;;11.00;99.90;;;;;;4928827;29;20055;-82
2023/03/25 02:14:50;;;;;;;30.88;5.03;;;11.40;99.90;;;;;;4944647;29;20090;-82
2023/03/25 02:18:09;;;;;;;31.25;4.95;;;8.80;99.90;;;;;;4922709;29;20067;-82
2023/03/25 02:21:22;;;;;;;23.45;4.38;;;8.90;99.90;;;;;;4897989;29;20062;-82
2023/03/25 02:24:05;;;;;;;30.08;4.40;;;8.90;99.90;;;;;;4926708;29;20051;-82
2023/03/25 02:27:12;;;;;;;17.88;4.43;;;8.90;99.90;;;;;;4923852;29;20091;-83
2023/03/25 02:30:06;;;;;;;30.00;5.25;;;8.90;99.90;;;;;;4931546;29;20055;-82
2023/03/25 02:32:59;;;;;;;28.58;4.35;;;9.00;99.90;;;;;;4929132;29;20087;-82
2023/03/25 02:35:51;;;;;;;21.08;4.15;;;9.10;99.90;;;;;;4910291;29;20082;-83
2023/03/25 02:38:45;;;;;;;26.40;4.72;;;9.00;99.90;;;;;;4932514;29;20566;-83
2023/03/25 02:41:35;;;;;;;28.98;4.25;;;10.20;99.90;;;;;;4929307;29;20446;-82
2023/03/25 02:44:12;;;;;;;29.48;3.08;;;9.00;99.90;;;;;;4935172;29;20047;-82
2023/03/25 02:46:43;;;;;;;28.55;4.80;;;9.00;99.90;;;;;;4931421;29;20090;-82
2023/03/25 02:49:19;;;;;;;28.13;3.63;;;9.10;99.90;;;;;;4931639;29;20158;-82
2023/03/25 02:51:59;;;;;;;32.78;5.18;;;11.70;99.90;;;;;;4915422;29;20059;-82
2023/03/25 02:54:27;;;;;;;22.23;4.25;;;9.00;99.90;;;;;;4909198;29;20498;-82
2023/03/25 02:56:59;;;;;;;39.65;4.97;;;11.60;99.90;;;;;;4930424;29;20145;-82
2023/03/25 02:59:28;;;;;;;25.80;4.53;;;9.00;99.90;;;;;;4932366;29;20131;-82
2023/03/25 03:01:57;;;;;;;23.95;3.22;;;8.90;99.90;;;;;;4943435;29;20403;-82
2023/03/25 03:04:24;;;;;;;23.05;4.13;;;10.50;99.90;;;;;;4914280;29;20130;-83
2023/03/25 03:06:52;;;;;;;22.08;3.47;;;9.20;99.90;;;;;;4933166;29;20086;-82
2023/03/25 03:09:43;;;;;;;28.55;5.30;;;8.70;99.90;;;;;;4928989;29;20047;-80
2023/03/25 03:12:31;;;;;;;26.25;3.80;;;9.00;99.90;;;;;;4913591;29;20055;-80
2023/03/25 03:15:11;;;;;;;21.95;4.70;;;9.00;99.90;;;;;;4929092;29;20054;-80
2023/03/25 03:18:01;;;;;;;22.33;4.32;;;8.90;99.90;;;;;;4915387;29;20102;-80
2023/03/25 03:20:54;;;;;;;28.65;5.60;;;8.90;99.90;;;;;;4927438;28;20059;-80
2023/03/25 03:23:32;;;;;;;25.88;4.13;;;8.90;99.90;;;;;;4934242;29;20055;-80
2023/03/25 03:26:07;;;;;;;27.67;4.78;;;8.90;99.90;;;;;;4918122;29;20487;-80
2023/03/25 03:28:37;;;;;;;;;;;8.90;99.90;;;;;;4934133;29;20047;-80
2023/03/25 03:31:16;;;;;;;19.88;3.10;;;8.90;99.90;;;;;;4918952;29;19925;-80
2023/03/25 03:33:54;;;;;;;25.65;4.10;;;9.40;99.90;;;;;;4930743;29;20047;-80
2023/03/25 03:36:27;;;;;;;22.88;4.68;;;11.80;99.90;;;;;;4933044;29;20090;-80
2023/03/25 03:39:15;;;;;;;30.70;4.67;;;11.10;99.90;;;;;;4932806;29;20051;-80
2023/03/25 03:41:45;;;;;;;20.77;4.28;;;8.90;99.90;;;;;;4917325;29;20306;-79
2023/03/25 03:44:17;;;;;;;27.05;4.13;;;12.20;99.90;;;;;;4915020;29;20059;-79
2023/03/25 03:46:58;;;;;;;22.27;3.42;;;12.10;99.90;;;;;;4947615;29;20051;-80
2023/03/25 03:49:34;;;;;;;30.60;5.25;;;9.00;99.90;;;;;;4913132;29;20581;-80
2023/03/25 03:52:36;;;;;;;26.58;4.30;;;8.90;99.90;;;;;;4932620;29;20051;-80
2023/03/25 03:55:16;;;;;;;26.95;4.65;;;8.80;99.90;;;;;;4903982;29;20094;-80
2023/03/25 03:57:50;;;;;;;27.58;5.45;;;11.10;99.90;;;;;;4916792;29;20043;-80
2023/03/25 04:00:28;;;;;;;23.23;3.65;;;9.00;99.90;;;;;;4932554;29;20500;-79
2023/03/25 04:02:59;;;;;;;21.65;3.83;;;9.00;99.90;;;;;;4914416;29;20054;-79
2023/03/25 04:05:29;;;;;;;21.60;3.63;;;12.10;99.90;;;;;;4911806;29;20058;-80
2023/03/25 04:08:10;;;;;;;29.50;5.03;;;11.10;99.90;;;;;;4917147;29;20062;-80
2023/03/25 04:10:51;;;;;;;23.85;4.20;;;8.90;99.90;;;;;;4929344;29;20551;-79
2023/03/25 04:13:19;;;;;;;28.40;4.07;;;11.80;99.90;;;;;;4947122;29;20102;-79
2023/03/25 04:15:45;;;;;;;23.70;5.13;;;8.80;99.90;;;;;;4930947;29;20044;-80
2023/03/25 04:18:11;;;;;;;33.03;5.53;;;8.10;99.90;;;;;;4929426;29;20086;-80
2023/03/25 04:20:43;;;;;;;23.40;4.85;;;8.90;99.90;;;;;;4932657;29;20471;-79
2023/03/25 04:23:14;;;;;;;30.30;4.00;;;8.70;99.90;;;;;;4931023;29;20051;-80
2023/03/25 04:25:51;;;;;;;28.08;5.15;;;8.80;99.90;;;;;;4916759;29;20054;-80
2023/03/25 04:28:18;;;;;;;29.10;4.38;;;9.00;99.90;;;;;;4933631;29;20059;-79
2023/03/25 04:30:45;;;;;;;27.35;5.20;;;11.70;99.90;;;;;;4917631;29;20047;-80
2023/03/25 04:33:12;;;;;;;20.50;4.25;;;11.40;99.90;;;;;;4928388;29;20091;-80
2023/03/25 04:35:39;;;;;;;24.73;4.18;;;11.10;99.90;;;;;;4908973;29;20537;-80
2023/03/25 04:38:06;;;;;;;26.15;4.70;;;9.90;99.90;;;;;;4941351;29;20138;-81
2023/03/25 04:40:31;;;;;;;23.58;4.53;;;12.00;99.90;;;;;;4909030;29;20561;-80
2023/03/25 04:42:57;;;;;;;26.13;4.95;;;11.70;99.90;;;;;;4908730;29;20142;-80
2023/03/25 04:45:24;;;;;;;27.48;5.47;;;10.80;99.90;;;;;;4926670;29;20446;-80
2023/03/25 04:47:53;;;;;;;21.75;3.67;;;11.30;99.90;;;;;;4928981;29;20054;-80
2023/03/25 04:50:26;;;;;;;19.75;3.75;;;8.80;99.90;;;;;;4911131;29;20051;-81
2023/03/25 04:52:53;;;;;;;34.77;4.87;;;8.60;99.90;;;;;;4925199;28;20055;-81
2023/03/25 04:55:20;;;;;;;28.42;5.93;;;9.70;99.90;;;;;;4908759;29;20470;-80
2023/03/25 04:57:47;;;;;;;20.08;3.22;;;11.00;99.90;;;;;;4916041;29;20051;-80
2023/03/25 05:00:15;;;;;;;23.13;4.32;;;11.60;99.90;;;;;;4930859;29;20537;-79
2023/03/25 05:02:49;;;;;;;27.17;3.83;;;8.80;99.90;;;;;;4930533;29;20113;-80
2023/03/25 05:05:17;;;;;;;30.20;5.10;;;8.80;99.90;;;;;;4915036;29;20085;-80
2023/03/25 05:07:45;;;;;;;20.02;4.00;;;9.80;99.90;;;;;;4931476;29;20051;-80
2023/03/25 05:10:11;;;;;;;30.88;4.72;;;11.30;99.90;;;;;;4930765;29;20047;-80
2023/03/25 05:12:40;;;;;;;30.52;4.78;;;8.90;99.90;;;;;;4931411;29;20404;-80
2023/03/25 05:15:07;;;;;;;21.92;4.05;;;10.70;99.90;;;;;;4930159;29;20036;-80
2023/03/25 05:17:33;;;;;;;28.08;5.25;;;8.90;99.90;;;;;;4949250;29;20046;-80
2023/03/25 05:20:00;;;;;;;23.38;4.80;;;8.80;99.90;;;;;;4929484;29;20526;-79
2023/03/25 05:22:25;;;;;;;29.45;4.95;;;8.80;99.90;;;;;;4915093;29;20342;-80
2023/03/25 05:24:52;;;;;;;32.65;5.25;;;11.80;99.90;;;;;;4931864;29;20061;-80
2023/03/25 05:27:20;;;;;;;32.63;5.85;;;12.00;99.90;;;;;;4916515;29;20212;-80
2023/03/25 05:29:46;;;;;;;34.03;4.22;;;;;;;;;;4915850;29;20543;-80
2023/03/25 05:32:16;;;;;;;33.92;5.05;;;8.90;99.90;;;;;;4930772;29;20063;-80
2023/03/25 05:34:46;;;;;;;31.05;5.53;;;11.60;99.90;;;;;;4913899;29;20442;-80
2023/03/25 05:37:15;;;;;;;33.72;5.40;;;8.90;99.90;;;;;;4913767;29;20403;-80
2023/03/25 05:39:40;;;;;;;27.30;4.80;;;10.60;99.90;;;;;;4948995;29;20062;-81
2023/03/25 05:42:06;;;;;;;26.38;5.13;;;11.70;99.90;;;;;;4927602;29;20047;-80
2023/03/25 05:44:32;;;;;;;17.85;4.80;;;9.50;99.90;;;;;;4912665;29;20086;-80
2023/03/25 05:47:00;;;;;;;25.00;4.38;;;9.40;99.90;;;;;;4945772;29;20419;-80
2023/03/25 05:49:27;;;;;;;27.50;4.57;;;9.30;99.90;;;;;;4911602;28;20395;-80
2023/03/25 05:51:55;;;;;;;25.58;4.90;;;8.80;99.90;;;;;;4910970;29;20051;-80
2023/03/25 05:54:27;;;;;;;30.40;4.07;;;10.00;99.90;;;;;;4924236;29;20573;-79
2023/03/25 05:56:52;;;;;;;27.88;5.47;;;11.20;99.90;;;;;;4941938;29;20051;-79
2023/03/25 05:59:19;;;;;;;29.63;4.60;;;10.50;99.90;;;;;;4924732;29;20099;-80
2023/03/25 06:01:45;;;;;;;29.58;4.93;;;8.80;99.90;;;;;;4926200;29;20531;-80
2023/03/25 06:04:12;;;;;;;23.55;4.63;;;9.50;99.90;;;;;;4910519;28;20105;-82
2023/03/25 06:06:38;;;;;;;29.45;5.07;;;8.80;99.90;;;;;;4926934;28;20131;-80
2023/03/25 06:09:05;;;;;;;24.50;5.03;;;11.30;99.90;;;;;;4910102;29;20102;-79
2023/03/25 06:11:36;;;;;;;29.95;5.00;;;11.30;99.90;;;;;;4927820;29;20053;-80
2023/03/25 06:14:03;;;;;;;25.75;4.05;;;11.70;99.90;;;;;;4943206;29;20055;-80
2023/03/25 06:16:30;;;;;;;24.75;4.47;;;6.20;99.90;;;;;;4927641;29;20062;-80
2023/03/25 06:18:58;;;;;;;28.00;5.45;;;8.10;99.90;;;;;;4910292;29;20039;-80
2023/03/25 06:21:31;;;;;;;30.02;3.72;;;12.30;99.90;;;;;;4930758;29;20496;-79
2023/03/25 06:23:59;;;;;;;29.83;5.70;;;8.90;99.90;;;;;;4932814;29;20055;-79
2023/03/25 06:26:25;;;;;;;27.50;5.22;;;10.50;99.90;;;;;;4933451;29;20043;-79
2023/03/25 06:28:51;;;;;;;23.48;3.67;;;10.40;99.90;;;;;;4931079;29;20176;-81
2023/03/25 06:31:25;;;;;;;20.30;3.65;;;10.20;99.90;;;;;;4929806;29;20219;-82
2023/03/25 06:33:51;;;;;;;36.67;5.25;;;11.10;99.90;;;;;;4929501;29;20047;-82
2023/03/25 06:36:19;;;;;;;30.00;4.22;;;12.00;99.90;;;;;;4921508;29;20047;-83
2023/03/25 06:38:49;;;;;;;28.50;4.45;;;9.70;99.90;;;;;;4933405;29;20051;-82
2023/03/25 06:41:19;;;;;;;18.30;2.85;;;8.80;99.90;;;;;;4895278;29;20071;-81
2023/03/25 06:43:48;;;;;;;26.25;3.65;;;9.00;99.90;;;;;;4929854;29;20058;-81
2023/03/25 06:46:15;;;;;;;26.55;4.20;;;8.90;99.90;;;;;;4899299;29;20066;-80
2023/03/25 06:48:40;;;;;;;26.58;3.38;;;12.00;99.90;;;;;;4915225;29;20054;-81
2023/03/25 06:51:06;;;;;;;21.70;4.03;;;11.70;99.90;;;;;;4559379;29;9999868;-81
2023/03/25 06:53:33;;;;;;;28.05;4.45;;;9.20;99.90;;;;;;4943447;28;20470;-79
2023/03/25 06:55:59;;;;;;;22.27;4.47;;;9.00;99.90;;;;;;4919583;29;20487;-81
2023/03/25 06:58:33;;;;;;;18.80;3.90;;;11.00;99.90;;;;;;4914785;29;20083;-81
2023/03/25 07:01:05;;;;;;;22.75;3.70;;;8.90;99.90;;;;;;4884482;29;20070;-80
2023/03/25 07:03:35;;;;;;;24.65;3.25;;;9.00;99.90;;;;;;4924251;29;20082;-81
2023/03/25 07:06:01;;;;;;;18.13;3.03;;;9.10;99.90;;;;;;4914625;29;20047;-82
2023/03/25 07:08:47;;;;;;;22.77;3.25;;;9.00;99.90;;;;;;4928745;29;20051;-81
2023/03/25 07:11:15;;;;;;;19.52;3.60;;;9.20;99.90;;;;;;4891786;29;20051;-83
2023/03/25 07:13:41;;;;;;;25.15;4.22;;;9.10;99.90;;;;;;4910108;29;20051;-82
2023/03/25 07:16:08;;;;;;;23.35;4.28;;;9.20;99.90;;;;;;4894071;29;20070;-82
2023/03/25 07:18:35;;;;;;;19.48;3.80;;;9.20;99.90;;;;;;4895503;29;20134;-83
2023/03/25 07:21:02;;;;;;;17.48;3.22;;;9.10;99.90;;;;;;4910831;29;20078;-82
2023/03/25 07:23:27;;;;;;;17.85;3.67;;;9.10;99.90;;;;;;4927438;29;20098;-82
2023/03/25 07:25:56;;;;;;;16.08;3.05;;;9.10;99.90;;;;;;4915094;29;20051;-82
2023/03/25 07:28:25;;;;;;;23.98;2.88;;;9.00;99.90;;;;;;4927146;29;20043;-81
2023/03/25 07:30:51;;;;;;;30.58;5.10;;;8.90;99.90;;;;;;4933118;29;20047;-82
2023/03/25 07:33:17;;;;;;;20.42;4.00;;;8.90;99.90;;;;;;4911985;29;20533;-82
2023/03/25 07:35:43;;;;;;;21.75;4.13;;;;;;;;;;4912528;29;20307;-83
2023/03/25 07:38:09;;;;;;;17.25;2.80;;;;;;;;;;4930624;29;20058;-82
2023/03/25 07:40:34;;;;;;;23.25;3.20;;;8.80;99.90;;;;;;4914776;29;20512;-83
2023/03/25 07:43:00;;;;;;;21.05;3.47;;;;;;;;;;4913228;29;20047;-81
2023/03/25 07:45:26;;;;;;;16.67;2.85;;;8.70;99.90;;;;;;4928845;29;20047;-81
2023/03/25 07:47:52;;;;;;;21.17;3.33;;;8.70;99.90;;;;;;4913533;29;20360;-82
2023/03/25 07:50:20;;;;;;;24.10;3.33;;;8.60;99.90;;;;;;4910778;29;20507;-82
2023/03/25 07:52:46;;;;;;;16.60;2.67;;;8.60;99.90;;;;;;4916204;29;20492;-84
2023/03/25 07:55:13;;;;;;;21.90;3.72;;;8.60;99.90;;;;;;4896968;29;20464;-84
2023/03/25 07:57:42;;;;;;;17.90;3.00;;;8.50;99.90;;;;;;4929115;29;20059;-83
2023/03/25 08:00:49;;;;;;;25.80;3.80;;;8.70;99.90;;;;;;4912768;29;20055;-84
2023/03/25 08:03:15;;;;;;;13.18;2.55;;;7.50;99.90;;;;;;4925554;29;20126;-82
2023/03/25 08:05:47;;;;;;;19.27;2.90;;;8.40;99.90;;;;;;4910179;29;20683;-80
2023/03/25 08:08:15;;;;;;;13.15;2.42;;;8.40;99.90;;;;;;4925992;29;20047;-81
2023/03/25 08:10:47;;;;;;;10.10;2.03;;;8.30;99.90;;;;;;4931091;29;20054;-80
2023/03/25 08:13:13;;;;;;;13.68;2.03;;;8.20;99.90;;;;;;4914697;29;20443;-82
2023/03/25 08:15:42;;;;;;;15.48;2.30;;;8.40;99.90;;;;;;4946686;29;20056;-79
2023/03/25 08:18:09;;;;;;;15.52;3.22;;;8.20;99.90;;;;;;4897495;29;20062;-81
2023/03/25 08:20:44;;;;;;;14.05;2.58;;;8.30;99.90;;;;;;4910547;29;20084;-82
2023/03/25 08:23:11;;;;;;;14.77;2.00;;;8.30;99.90;;;;;;4915300;29;20054;-81
2023/03/25 08:25:56;;;;;;;19.58;4.28;;;8.30;99.90;;;;;;4930638;28;20149;-82
2023/03/25 08:28:22;;;;;;;19.75;3.75;;;;;;;;;;4912019;29;20055;-83
2023/03/25 08:30:53;;;;;;;25.27;3.72;;;8.40;99.90;;;;;;4927918;29;20055;-81
2023/03/25 08:33:21;;;;;;;22.00;2.97;;;8.50;99.90;;;;;;4918260;28;20114;-82
2023/03/25 08:36:09;;;;;;;14.30;2.95;;;8.40;99.90;;;;;;4917860;29;20053;-82
2023/03/25 08:39:06;;;;;;;19.40;3.40;;;8.40;99.90;;;;;;4891273;29;20093;-82
2023/03/25 08:41:32;;;;;;;21.35;3.78;;;8.50;99.90;;;;;;4895753;29;20051;-81
2023/03/25 08:44:02;;;;;;;16.75;4.35;;;8.60;99.90;;;;;;4923588;29;20461;-81
2023/03/25 08:46:27;;;;;;;23.92;2.90;;;6.80;99.90;;;;;;4894951;29;20071;-81
2023/03/25 08:48:54;;;;;;;17.13;3.17;;;8.60;99.90;;;;;;4906382;29;20138;-81
2023/03/25 08:51:21;;;;;;;28.55;4.55;;;;;;;;;;4888928;29;20056;-81
2023/03/25 08:53:47;;;;;;;25.08;4.35;;;8.50;99.90;;;;;;4907787;29;20055;-82
2023/03/25 08:56:13;;;;;;;15.63;2.30;;;8.60;99.90;;;;;;4864337;29;20074;-81
2023/03/25 08:58:59;;;;;;;20.30;3.92;;;8.70;99.90;;;;;;4907085;29;20066;-81
2023/03/25 09:01:25;;;;;;;20.92;3.75;;;8.70;99.90;;;;;;4908399;29;20138;-81
2023/03/25 09:03:57;;;;;;;22.35;3.63;;;8.90;99.90;;;;;;4894557;29;20055;-81
2023/03/25 09:06:23;;;;;;;26.38;3.85;;;8.90;99.90;;;;;;4890280;29;20172;-81
2023/03/25 09:08:51;;;;;;;17.23;4.10;;;8.90;99.90;;;;;;4911001;29;20054;-81
2023/03/25 09:11:17;;;;;;;17.58;3.58;;;9.00;99.90;;;;;;4895352;29;20055;-81
2023/03/25 09:13:43;;;;;;;17.50;3.38;;;9.10;99.90;;;;;;4891341;29;20406;-80
2023/03/25 09:16:10;;;;;;;24.05;4.15;;;9.10;99.90;;;;;;4909951;29;20098;-81
2023/03/25 09:18:36;;;;;;;15.35;3.22;;;9.20;99.90;;;;;;4892958;29;20328;-81
2023/03/25 09:21:02;;;;;;;16.33;3.53;;;9.20;99.90;;;;;;4910818;29;20066;-81
2023/03/25 09:23:28;;;;;;;16.40;2.67;;;6.80;99.90;;;;;;4893056;29;20044;-81
2023/03/25 09:26:04;;;;;;;16.08;2.03;;;9.30;99.90;;;;;;4908644;29;20046;-80
2023/03/25 09:28:30;;;;;;;16.17;3.22;;;9.30;99.90;;;;;;4900538;29;20110;-80
2023/03/25 09:30:56;;;;;;;20.77;2.97;;;9.40;99.90;;;;;;4875692;29;20051;-80
2023/03/25 09:33:22;;;;;;;17.80;3.40;;;9.40;99.90;;;;;;4874807;29;20077;-79
2023/03/25 09:35:49;;;;;;;14.30;2.97;;;9.50;99.90;;;;;;4894134;29;20047;-77
2023/03/25 09:38:17;;;;;;;13.60;2.80;;;;;;;;;;4926359;28;20063;-78
2023/03/25 09:40:43;;;;;;;15.07;2.47;;;9.70;99.90;;;;;;4911062;29;20052;-79
2023/03/25 09:43:30;;;;;;;25.83;3.75;;;9.70;99.90;;;;;;4948377;29;20106;-80
2023/03/25 09:45:58;;;;;;;15.82;2.42;;;9.70;99.90;;;;;;4912619;29;20067;-80
2023/03/25 09:48:39;;;;;;;16.85;3.25;;;10.50;99.90;;;;;;4930369;29;20054;-81
2023/03/25 09:51:09;;;;;;;14.82;2.28;;;9.60;99.90;;;;;;4948365;29;20093;-81
2023/03/25 09:53:38;;;;;;;16.75;2.97;;;9.70;99.90;;;;;;4913986;29;20047;-81
2023/03/25 09:56:09;;;;;;;14.32;2.40;;;9.70;99.90;;;;;;4933184;29;20047;-80
2023/03/25 09:58:44;;;;;;;20.08;3.10;;;9.70;99.90;;;;;;4942776;29;20051;-81
2023/03/25 10:01:25;;;;;;;18.85;3.30;;;10.40;99.90;;;;;;4918481;29;20554;-81
2023/03/25 10:04:21;;;;;;;15.85;2.53;;;9.50;99.90;;;;;;4912098;29;20058;-80
2023/03/25 10:07:09;;;;;;;24.23;3.25;;;9.50;99.90;;;;;;4913142;29;20043;-80
2023/03/25 10:10:01;;;;;;;23.40;3.45;;;9.30;99.90;;;;;;4921618;29;20151;-81
2023/03/25 10:12:53;;;;;;;20.02;2.97;;;9.40;99.90;;;;;;4897519;29;20138;-81
2023/03/25 10:15:58;;;;;;;17.70;3.15;;;9.40;99.90;;;;;;4931384;28;20156;-80
2023/03/25 10:18:35;;;;;;;15.05;1.98;;;9.40;99.90;;;;;;4944874;28;20066;-81
2023/03/25 10:21:25;;;;;;;17.52;3.25;;;7.40;99.90;;;;;;4934382;29;20051;-81
2023/03/25 10:24:17;;;;;;;14.30;3.20;;;9.60;99.90;;;;;;4927862;29;20110;-80
2023/03/25 10:27:01;;;;;;;22.85;3.58;;;9.60;99.90;;;;;;4912724;29;20069;-81
2023/03/25 10:29:40;;;;;;;17.25;2.95;;;9.70;99.90;;;;;;4915378;29;20067;-81
2023/03/25 10:36:09;;;;;;;23.10;3.25;;;9.80;99.90;;;;;;4946522;29;20046;-82
2023/03/25 10:38:55;;;;;;;17.10;2.13;;;9.80;99.90;;;;;;4939152;28;20086;-81
2023/03/25 10:41:38;;;;;;;17.75;2.08;;;10.50;99.90;;;;;;4925791;29;20581;-82
2023/03/25 10:44:09;;;;;;;15.30;2.92;;;8.00;99.90;;;;;;4896537;28;20081;-81
2023/03/25 10:47:00;;;;;;;22.90;3.03;;;12.60;99.90;;;;;;4926950;29;20051;-81
2023/03/25 10:49:29;;;;;;;17.65;2.35;;;9.90;99.90;;;;;;4910540;29;20066;-82
2023/03/25 10:52:02;;;;;;;12.25;2.45;;;9.90;99.90;;;;;;4939454;28;20404;-81
2023/03/25 10:54:45;;;;;;;15.13;3.42;;;10.70;99.90;;;;;;4910444;29;20073;-81
2023/03/25 10:57:51;;;;;;;12.13;1.67;;;9.90;99.90;;;;;;4952170;28;20062;-82
2023/03/25 11:08:51;;;;;;;15.88;1.85;;;10.00;99.90;;;;;;4829335;29;20065;-81
2023/03/25 11:16:42;;;;;;;12.18;2.13;;;10.00;99.90;;;;;;4725324;30;20141;-83
2023/03/25 11:20:29;;;;;;;9.93;2.10;;;10.20;99.90;;;;;;4739560;30;20067;-81
2023/03/25 11:28:13;;;;;;;11.55;1.80;;;10.40;99.90;;;;;;4751720;30;20575;-83
2023/03/25 11:31:51;;;;;;;12.43;2.50;;;10.70;99.90;;;;;;4757627;30;20067;-81
2023/03/25 11:34:23;;;;;;;14.48;2.65;;;10.50;99.90;;;;;;4752554;30;20067;-81
2023/03/25 11:36:59;;;;;;;12.55;2.33;;;10.50;99.90;;;;;;4756510;30;20051;-82
2023/03/25 11:40:00;;;;;;;15.50;1.65;;;10.60;99.90;;;;;;4749352;30;20697;-80
2023/03/25 11:43:07;;;;;;;;;;;10.60;99.90;;;;;;4765109;29;20089;-83
2023/03/25 11:46:15;;;;;;;10.25;2.22;;;10.50;99.90;;;;;;4790590;29;20015;-82
2023/03/25 11:49:10;;;;;;;9.75;1.42;;;11.80;99.90;;;;;;4771777;29;20203;-82
2023/03/25 11:51:36;;;;;;;11.77;1.73;;;10.70;99.90;;;;;;4810698;29;20656;-81
2023/03/25 11:54:10;;;;;;;8.85;1.52;;;10.70;99.90;;;;;;4835893;29;20511;-81
2023/03/25 11:56:41;;;;;;;14.82;2.70;;;11.40;99.90;;;;;;4821004;29;20061;-81
2023/03/25 11:59:43;;;;;;;8.90;1.63;;;10.80;99.90;;;;;;4834089;29;20075;-82
2023/03/25 12:02:37;;;;;;;5.70;1.33;;;10.70;99.90;;;;;;4944878;28;20054;-82
2023/03/25 12:05:15;;;;;;;7.65;1.83;;;10.80;99.90;;;;;;4931169;29;20055;-82
2023/03/25 12:07:50;;;;;;;8.07;1.42;;;10.80;99.90;;;;;;4918853;29;20511;-83
2023/03/25 12:10:33;;;;;;;13.43;2.05;;;11.00;99.90;;;;;;4918704;29;20070;-83
2023/03/25 12:13:26;;;;;;;11.68;2.83;;;13.60;99.90;;;;;;4918390;29;20415;-82
2023/03/25 12:16:15;;;;;;;10.70;2.05;;;11.10;99.90;;;;;;4937028;29;20253;-82
2023/03/25 12:19:12;;;;;;;10.23;1.73;;;11.20;99.90;;;;;;4930599;29;20570;-82
2023/03/25 12:22:13;;;;;;;9.18;1.73;;;11.30;99.90;;;;;;4908901;29;20643;-82
2023/03/25 12:25:11;;;;;;;9.18;2.28;;;11.20;99.90;;;;;;4932263;29;20094;-82
2023/03/25 12:27:58;;;;;;;10.55;1.88;;;11.20;99.90;;;;;;4928632;29;20078;-81
2023/03/25 12:30:44;;;;;;;17.23;2.92;;;11.10;99.90;;;;;;4928917;29;20058;-82
2023/03/25 12:33:48;;;;;;;9.98;1.48;;;12.70;99.90;;;;;;4931867;29;20458;-82
2023/03/25 12:36:35;;;;;;;15.85;2.95;;;11.20;99.90;;;;;;4914382;29;20051;-82
2023/03/25 12:39:32;;;;;;;15.52;2.78;;;10.90;99.90;;;;;;4944785;29;20063;-81
2023/03/25 12:42:29;;;;;;;16.65;2.60;;;10.90;99.90;;;;;;4945775;29;20733;-82
2023/03/25 12:45:05;;;;;;;18.35;2.67;;;11.10;99.90;;;;;;4926869;29;20051;-81
2023/03/25 12:47:45;;;;;;;11.23;1.73;;;11.00;99.90;;;;;;4933922;29;20055;-82
2023/03/25 12:50:46;;;;;;;10.75;1.73;;;10.90;99.90;;;;;;4932336;29;20054;-82
2023/03/25 12:53:20;;;;;;;8.13;2.05;;;12.10;99.90;;;;;;4929621;29;20074;-82
2023/03/25 12:56:04;;;;;;;12.73;2.35;;;11.10;99.90;;;;;;4930187;29;20154;-81
2023/03/25 12:59:05;;;;;;;11.93;2.43;;;11.00;99.90;;;;;;4931721;29;20051;-82
2023/03/25 13:02:35;;;;;;;15.20;2.67;;;11.20;99.90;;;;;;4835547;29;20437;-81
2023/03/25 13:05:52;;;;;;;13.43;1.83;;;11.10;99.90;;;;;;4948571;29;20065;-81
2023/03/25 13:08:57;;;;;;;11.13;2.28;;;10.90;99.90;;;;;;4927912;29;20149;-81
2023/03/25 13:12:35;;;;;;;14.80;2.38;;;11.00;99.90;;;;;;4923331;29;20043;-81
2023/03/25 13:15:47;;;;;;;8.65;2.05;;;10.60;99.90;;;;;;4926929;29;20054;-83
2023/03/25 13:19:45;;;;;;;7.90;1.73;;;10.50;99.90;;;;;;4884987;29;20271;-83
2023/03/25 13:27:36;;;;;;;4.68;1.40;;;10.30;99.90;;;;;;4861696;29;20132;-81
2023/03/25 13:31:19;;;;;;;8.20;1.85;;;10.30;99.90;;;;;;4845225;29;20060;-82
2023/03/25 14:03:47;;;;;;;10.43;1.60;;;10.70;99.90;;;;;;4650281;30;20070;-82
2023/03/25 14:07:43;;;;;;;12.02;1.67;;;9.70;99.90;;;;;;4650700;30;20077;-81
2023/03/25 14:11:35;;;;;;;4.63;1.10;;;9.70;99.90;;;;;;4694396;29;20067;-83
2023/03/25 14:19:12;;;;;;;9.48;1.67;;;9.40;99.90;;;;;;4842055;29;20047;-83
2023/03/25 14:22:56;;;;;;;6.85;1.35;;;9.30;99.90;;;;;;4867636;29;20045;-83
2023/03/25 14:30:07;;;;;;;8.10;1.15;;;8.80;99.90;;;;;;4865250;29;20370;-83
2023/03/25 14:34:03;;;;;;;6.72;0.65;;;9.10;99.90;;;;;;4774540;29;20058;-83
2023/03/25 14:41:52;;;;;;;7.50;0.93;;;9.20;99.90;;;;;;4758875;30;20051;-83
2023/03/25 14:45:57;;;;;;;8.85;1.33;;;9.30;99.90;;;;;;4793469;29;20514;-83
2023/03/25 14:49:45;;;;;;;13.07;2.40;;;9.20;99.90;;;;;;4763349;30;20047;-83